Time;durP1;ratioP1;P1;durP2;ratioP2;P2;SDS_P1;SDS_P2;PMS_P1;PMS_P2;Temp;Humidity;BMP_temperature;BMP_pressure;BME280_temperature;BME280_humidity;BME280_pressure;Samples;Min_cycle;Max_cycle;Signal;HPM_P1;HPM_P2
2023/07/27 00:00:54;;;;;;;;;;;;;;;23.17;29.36;96754.78;5075720;28;902;-78
2023/07/27 00:03:20;;;;;;;;;;;;;;;23.01;29.27;96724.03;5075323;28;1365;-77
2023/07/27 00:05:45;;;;;;;;;;;;;;;22.75;29.79;96704.66;5075600;28;978;-78
2023/07/27 00:08:11;;;;;;;;;;;;;;;23.16;29.16;96709.84;5076492;28;870;-78
2023/07/27 00:10:36;;;;;;;;;;;;;;;22.69;29.70;96754.81;5077219;28;885;-78
2023/07/27 00:13:02;;;;;;;;;;;;;;;22.98;29.67;96748.47;5075330;28;1201;-78
2023/07/27 00:15:27;;;;;;;;;;;;;;;23.15;29.34;96754.47;5076576;28;1959;-78
2023/07/27 00:17:53;;;;;;;;;;;;;;;23.14;29.20;96776.41;5058599;28;916;-78
2023/07/27 00:20:18;;;;;;;;;;;;;;;23.09;29.39;96790.47;5075466;28;888;-78
2023/07/27 00:22:44;;;;;;;;;;;;;;;23.26;29.31;96825.66;5075124;28;897;-78
2023/07/27 00:25:09;;;;;;;;;;;;;;;23.42;28.93;96832.97;5076453;28;825;-78
2023/07/27 00:27:35;;;;;;;;;;;;;;;23.21;29.31;96800.00;5075250;28;934;-78
2023/07/27 00:30:00;;;;;;;;;;;;;;;23.49;28.90;96764.44;5057079;28;968;-78
2023/07/27 00:32:26;;;;;;;;;;;;;;;23.30;29.23;96780.84;5074255;28;1047;-78
2023/07/27 00:34:51;;;;;;;;;;;;;;;22.77;29.68;96756.00;5057031;28;1979;-78
2023/07/27 00:37:17;;;;;;;;;;;;;;;22.83;29.66;96748.38;5057339;28;1644;-78
2023/07/27 00:39:43;;;;;;;;;;;;;;;23.03;29.26;96744.19;5057318;28;1166;-78
2023/07/27 00:42:08;;;;;;;;;;;;;;;22.84;29.55;96744.28;5034058;28;1177;-78
2023/07/27 00:44:34;;;;;;;;;;;;;;;22.87;29.35;96754.66;5017742;28;1123;-78
2023/07/27 00:46:59;;;;;;;;;;;;;;;22.94;29.38;96793.25;5017480;28;921;-78
2023/07/27 00:49:25;;;;;;;;;;;;;;;23.12;28.88;96821.50;5021291;28;952;-78
2023/07/27 00:51:50;;;;;;;;;;;;;;;23.30;28.81;96871.66;5021387;28;932;-78
2023/07/27 00:54:16;;;;;;;;;;;;;;;23.09;28.67;96889.78;5021572;28;1136;-78
2023/07/27 00:56:41;;;;;;;;;;;;;;;23.12;28.48;96878.25;5021692;28;1907;-78
2023/07/27 00:59:07;;;;;;;;;;;;;;;22.78;28.84;96871.00;5021535;28;1234;-78
2023/07/27 01:01:32;;;;;;;;;;;;;;;23.03;28.59;96869.00;5036097;28;868;-78
2023/07/27 01:03:58;;;;;;;;;;;;;;;22.92;28.56;96860.25;5040991;28;951;-78
2023/07/27 01:06:24;;;;;;;;;;;;;;;22.97;28.20;96865.28;5024725;28;1149;-78
2023/07/27 01:08:49;;;;;;;;;;;;;;;22.89;28.49;96853.47;5041144;28;890;-78
2023/07/27 01:11:18;;;;;;;;;;;;;;;22.82;28.63;96851.75;5024551;28;1166;-78
2023/07/27 01:13:51;;;;;;;;;;;;;;;22.93;28.55;96853.31;5040942;28;1304;-78
2023/07/27 01:16:22;;;;;;;;;;;;;;;22.93;28.42;96853.31;5024470;28;1961;-78
2023/07/27 01:19:02;;;;;;;;;;;;;;;23.05;28.06;96860.78;5008571;28;1187;-78
2023/07/27 01:21:39;;;;;;;;;;;;;;;22.80;28.46;96857.13;5040988;28;1294;-78
2023/07/27 01:24:10;;;;;;;;;;;;;;;22.82;28.62;96865.94;5040618;28;978;-78
2023/07/27 01:26:44;;;;;;;;;;;;;;;23.06;28.12;96871.69;5040872;28;1150;-77
2023/07/27 01:29:13;;;;;;;;;;;;;;;22.99;28.23;96863.50;5057122;28;926;-78
2023/07/27 01:31:42;;;;;;;;;;;;;;;23.05;28.14;96866.47;5041453;28;1151;-78
2023/07/27 01:34:13;;;;;;;;;;;;;;;23.05;27.82;96875.78;5021170;28;1079;-78
2023/07/27 01:36:39;;;;;;;;;;;;;;;22.61;28.60;96869.84;5053525;28;1918;-77
2023/07/27 01:39:06;;;;;;;;;;;;;;;22.84;28.26;96873.97;5020771;28;1102;-78
2023/07/27 01:41:32;;;;;;;;;;;;;;;22.96;28.28;96875.84;5020891;28;912;-78
2023/07/27 01:43:57;;;;;;;;;;;;;;;22.92;28.38;96874.44;5016803;28;1080;-78
2023/07/27 01:46:23;;;;;;;;;;;;;;;22.67;28.78;96870.75;4985018;28;1030;-78
2023/07/27 01:48:49;;;;;;;;;;;;;;;22.96;28.16;96875.06;4984514;28;1186;-78
2023/07/27 01:51:14;;;;;;;;;;;;;;;22.99;28.01;96868.41;4984775;28;1298;-78
2023/07/27 01:53:40;;;;;;;;;;;;;;;23.16;27.89;96872.41;5000878;28;992;-78
2023/07/27 01:56:06;;;;;;;;;;;;;;;22.95;28.18;96881.97;5010241;28;1906;-78
2023/07/27 01:58:31;;;;;;;;;;;;;;;23.07;27.91;96880.97;5053312;28;1095;-78
2023/07/27 02:00:57;;;;;;;;;;;;;;;22.81;28.47;96887.06;5052856;28;1249;-78
2023/07/27 02:03:22;;;;;;;;;;;;;;;22.80;28.18;96902.53;5056324;28;1015;-78
2023/07/27 02:05:48;;;;;;;;;;;;;;;22.96;28.21;96903.41;5071279;28;895;-78
2023/07/27 02:08:13;;;;;;;;;;;;;;;22.99;28.21;96902.44;5080385;28;1167;-78
2023/07/27 02:10:39;;;;;;;;;;;;;;;23.24;27.53;96901.97;5080236;28;1165;-78
2023/07/27 02:13:25;;;;;;;;;;;;;;;22.95;27.75;96879.13;5059866;28;1354;-78
2023/07/27 02:15:55;;;;;;;;;;;;;;;22.85;28.18;96876.34;5000534;28;1930;-78
2023/07/27 02:18:21;;;;;;;;;;;;;;;23.03;27.93;96894.53;4984109;28;1120;-78
2023/07/27 02:20:48;;;;;;;;;;;;;;;22.70;28.27;96886.03;5004137;28;1012;-78
2023/07/27 02:23:13;;;;;;;;;;;;;;;22.68;28.29;96889.31;4999970;28;1003;-78
2023/07/27 02:25:39;;;;;;;;;;;;;;;23.02;27.90;96890.94;4984540;28;1230;-78
2023/07/27 02:28:05;;;;;;;;;;;;;;;23.19;27.69;96882.78;4984096;28;1066;-78
2023/07/27 02:30:30;;;;;;;;;;;;;;;22.58;28.64;96884.94;4984189;28;1246;-78
2023/07/27 02:32:56;;;;;;;;;;;;;;;22.74;28.39;96892.28;4984024;28;1259;-78
2023/07/27 02:35:21;;;;;;;;;;;;;;;22.54;28.46;96910.66;4981969;28;1902;-78
2023/07/27 02:37:52;;;;;;;;;;;;;;;22.93;28.11;96915.72;4997050;28;965;-78
2023/07/27 02:40:22;;;;;;;;;;;;;;;22.81;27.97;96908.97;4997027;28;1388;-78
2023/07/27 02:42:47;;;;;;;;;;;;;;;22.69;28.17;96919.28;4996761;28;1573;-78
2023/07/27 02:45:13;;;;;;;;;;;;;;;22.85;27.81;96910.38;5015891;28;840;-78
2023/07/27 02:47:38;;;;;;;;;;;;;;;22.86;27.67;96917.59;4996293;28;1304;-78
2023/07/27 02:50:04;;;;;;;;;;;;;;;22.85;27.63;96921.72;4980607;28;1178;-78
2023/07/27 02:52:35;;;;;;;;;;;;;;;22.69;27.94;96924.94;5013946;28;1216;-78
2023/07/27 02:55:03;;;;;;;;;;;;;;;22.82;27.64;96927.56;5038960;28;1914;-78
2023/07/27 02:57:29;;;;;;;;;;;;;;;22.56;28.03;96927.19;5022861;28;1067;-78
2023/07/27 02:59:58;;;;;;;;;;;;;;;22.86;27.44;96940.31;5039002;28;1351;-78
2023/07/27 03:02:24;;;;;;;;;;;;;;;23.03;27.34;96951.28;5039186;28;1206;-78
2023/07/27 03:04:53;;;;;;;;;;;;;;;22.95;27.49;96952.88;5039281;28;1349;-78
2023/07/27 03:07:19;;;;;;;;;;;;;;;22.64;27.61;96953.94;5022182;28;1267;-78
2023/07/27 03:09:49;;;;;;;;;;;;;;;22.82;27.71;96944.56;5022555;28;1078;-78
2023/07/27 03:12:14;;;;;;;;;;;;;;;22.67;27.55;96949.34;5022549;28;1125;-78
2023/07/27 03:14:39;;;;;;;;;;;;;;;22.88;27.32;96949.13;5055117;28;1064;-78
2023/07/27 03:17:05;;;;;;;;;;;;;;;22.98;27.65;96964.06;5022509;28;1914;-78
2023/07/27 03:19:31;;;;;;;;;;;;;;;22.78;27.63;96995.00;5053639;28;1095;-78
2023/07/27 03:21:56;;;;;;;;;;;;;;;22.63;28.04;96984.31;5093448;28;1054;-78
2023/07/27 03:24:22;;;;;;;;;;;;;;;22.69;27.83;96975.97;5075487;28;1108;-78
2023/07/27 03:26:48;;;;;;;;;;;;;;;22.71;28.11;96953.59;5075373;28;1138;-78
2023/07/27 03:29:14;;;;;;;;;;;;;;;22.63;27.92;96932.50;5075277;28;1326;-78
2023/07/27 03:31:39;;;;;;;;;;;;;;;22.95;27.86;96931.00;5075338;28;1113;-78
2023/07/27 03:34:05;;;;;;;;;;;;;;;23.07;27.72;96932.03;5058496;28;1101;-78
2023/07/27 03:36:31;;;;;;;;;;;;;;;22.98;27.88;96940.59;5075032;28;1906;-78
2023/07/27 03:38:56;;;;;;;;;;;;;;;22.84;27.79;96945.66;5074890;28;984;-78
2023/07/27 03:41:22;;;;;;;;;;;;;;;22.53;28.63;96950.81;5042012;28;939;-78
2023/07/27 03:43:47;;;;;;;;;;;;;;;22.93;27.79;96938.41;5041618;28;1246;-78
2023/07/27 03:46:13;;;;;;;;;;;;;;;22.67;28.62;96935.97;5058316;28;906;-78
2023/07/27 03:48:39;;;;;;;;;;;;;;;22.89;28.01;96932.91;5041017;28;1265;-78
2023/07/27 03:51:04;;;;;;;;;;;;;;;22.83;28.30;96932.75;5041802;28;1134;-78
2023/07/27 03:53:30;;;;;;;;;;;;;;;22.75;28.38;96920.19;5041303;28;1502;-78
2023/07/27 03:55:55;;;;;;;;;;;;;;;22.54;28.89;96915.53;5058151;28;1979;-78
2023/07/27 03:58:21;;;;;;;;;;;;;;;22.47;28.65;96919.47;5057945;28;1336;-78
2023/07/27 04:00:47;;;;;;;;;;;;;;;22.56;28.88;96910.94;5041247;28;1115;-78
2023/07/27 04:03:12;;;;;;;;;;;;;;;22.85;28.60;96910.38;5057926;28;1138;-78
2023/07/27 04:05:38;;;;;;;;;;;;;;;22.87;28.61;96913.50;5041182;28;974;-78
2023/07/27 04:08:03;;;;;;;;;;;;;;;22.75;28.70;96908.84;5057586;28;906;-78
2023/07/27 04:10:29;;;;;;;;;;;;;;;22.57;29.09;96900.41;5057944;28;1083;-78
2023/07/27 04:12:55;;;;;;;;;;;;;;;22.82;28.55;96911.31;5057839;28;1131;-79
2023/07/27 04:15:21;;;;;;;;;;;;;;;22.74;29.02;96921.47;5057843;28;1898;-78
2023/07/27 04:17:46;;;;;;;;;;;;;;;22.95;28.50;96930.19;5091891;28;965;-78
2023/07/27 04:20:12;;;;;;;;;;;;;;;23.09;28.07;96901.91;5057568;28;874;-78
2023/07/27 04:22:37;;;;;;;;;;;;;;;22.83;28.72;96895.09;5058263;28;1532;-78
2023/07/27 04:25:03;;;;;;;;;;;;;;;22.71;29.05;96911.06;5077705;28;1131;-78
2023/07/27 04:27:29;;;;;;;;;;;;;;;22.77;29.01;96925.38;5094544;28;1185;-78
2023/07/27 04:29:54;;;;;;;;;;;;;;;22.92;28.72;96936.84;5077913;28;904;-78
2023/07/27 04:32:20;;;;;;;;;;;;;;;22.80;28.76;96941.44;5094439;28;1252;-78
2023/07/27 04:34:45;;;;;;;;;;;;;;;22.77;28.83;96945.22;5077594;28;1291;-79
2023/07/27 04:37:11;;;;;;;;;;;;;;;22.70;29.10;96951.25;5078039;28;1971;-79
2023/07/27 04:39:36;;;;;;;;;;;;;;;22.94;28.65;96962.66;5111539;28;932;-78
2023/07/27 04:42:02;;;;;;;;;;;;;;;22.68;29.19;96948.88;5074399;28;1499;-79
2023/07/27 04:44:27;;;;;;;;;;;;;;;22.86;28.97;96945.97;5068500;28;1173;-79
2023/07/27 04:46:53;;;;;;;;;;;;;;;22.80;28.97;96956.41;5059839;28;1145;-79
2023/07/27 04:49:19;;;;;;;;;;;;;;;22.64;28.88;96956.78;5073913;28;910;-78
2023/07/27 04:51:44;;;;;;;;;;;;;;;22.71;29.14;96961.31;5074268;28;958;-79
2023/07/27 04:54:10;;;;;;;;;;;;;;;22.78;28.77;96956.06;5057257;28;874;-79
2023/07/27 04:56:36;;;;;;;;;;;;;;;23.09;28.31;96935.16;5073955;28;1909;-79
2023/07/27 04:59:01;;;;;;;;;;;;;;;22.62;28.77;96945.09;5024154;28;883;-78
2023/07/27 05:01:27;;;;;;;;;;;;;;;22.58;28.74;96947.31;5057978;28;883;-78
2023/07/27 05:03:52;;;;;;;;;;;;;;;22.70;28.61;96943.53;5074245;28;929;-79
2023/07/27 05:06:18;;;;;;;;;;;;;;;22.73;28.57;96936.88;5073949;28;834;-78
2023/07/27 05:08:43;;;;;;;;;;;;;;;22.55;28.95;96937.72;5073923;28;954;-78
2023/07/27 05:11:10;;;;;;;;;;;;;;;22.48;29.08;96943.72;5074264;28;992;-79
2023/07/27 05:13:35;;;;;;;;;;;;;;;22.68;28.68;96933.91;5073719;28;1053;-79
2023/07/27 05:16:01;;;;;;;;;;;;;;;22.55;28.66;96936.94;5056022;28;1906;-79
2023/07/27 05:18:27;;;;;;;;;;;;;;;22.72;28.56;96952.31;5053687;28;891;-79
2023/07/27 05:20:52;;;;;;;;;;;;;;;22.93;28.27;96966.78;5021149;28;1129;-79
2023/07/27 05:23:18;;;;;;;;;;;;;;;22.74;28.23;96972.50;5055984;28;892;-79
2023/07/27 05:25:43;;;;;;;;;;;;;;;22.59;28.30;96965.94;5056181;28;798;-79
2023/07/27 05:28:08;;;;;;;;;;;;;;;22.76;28.31;96981.31;5037931;28;904;-80
2023/07/27 05:30:34;;;;;;;;;;;;;;;22.82;28.01;96990.72;5056719;28;886;-79
2023/07/27 05:32:59;;;;;;;;;;;;;;;22.41;28.39;97011.31;5073871;28;1838;-80
2023/07/27 05:35:25;;;;;;;;;;;;;;;22.59;27.94;97022.63;5095655;28;1973;-79
2023/07/27 05:37:50;;;;;;;;;;;;;;;22.89;27.57;96998.13;5097570;28;928;-79
2023/07/27 05:40:16;;;;;;;;;;;;;;;22.60;27.77;96967.50;5097359;28;960;-79
2023/07/27 05:42:42;;;;;;;;;;;;;;;22.66;27.55;97010.16;5080854;28;1258;-79
2023/07/27 05:45:08;;;;;;;;;;;;;;;22.59;27.75;97070.81;5080260;28;929;-80
2023/07/27 05:47:33;;;;;;;;;;;;;;;22.69;27.57;97134.78;5077326;28;1054;-80
2023/07/27 05:49:58;;;;;;;;;;;;;;;22.75;27.11;97164.06;5059969;28;1697;-80
2023/07/27 05:52:24;;;;;;;;;;;;;;;22.98;26.57;97195.91;5060167;28;966;-79
2023/07/27 05:54:50;;;;;;;;;;;;;;;22.77;26.91;97164.38;5077059;28;944;-80
2023/07/27 05:57:15;;;;;;;;;;;;;;;22.87;26.51;97100.72;5077285;28;1975;-80
2023/07/27 05:59:41;;;;;;;;;;;;;;;22.91;26.39;97066.53;5076785;28;1247;-79
2023/07/27 06:02:06;;;;;;;;;;;;;;;22.54;26.92;97060.91;5045757;28;1039;-80
2023/07/27 06:04:32;;;;;;;;;;;;;;;22.53;27.13;97081.22;5045736;28;1411;-80
2023/07/27 06:06:58;;;;;;;;;;;;;;;22.75;27.00;97123.59;5056499;28;1580;-80
2023/07/27 06:09:24;;;;;;;;;;;;;;;22.52;27.18;97159.00;5036495;28;1643;-80
2023/07/27 06:11:49;;;;;;;;;;;;;;;22.86;26.62;97087.78;5050044;28;1592;-79
2023/07/27 06:14:15;;;;;;;;;;;;;;;22.77;26.55;97053.00;5036668;28;1518;-79
2023/07/27 06:16:40;;;;;;;;;;;;;;;22.62;27.02;97084.03;5036308;28;1970;-80
2023/07/27 06:19:06;;;;;;;;;;;;;;;22.54;27.33;97077.13;5023349;28;863;-79
2023/07/27 06:21:32;;;;;;;;;;;;;;;22.71;26.87;97078.38;5064407;28;1202;-79
2023/07/27 06:23:57;;;;;;;;;;;;;;;22.49;27.07;97072.09;5073399;28;978;-80
2023/07/27 06:26:23;;;;;;;;;;;;;;;22.71;27.18;97081.19;5056376;28;869;-80
2023/07/27 06:28:48;;;;;;;;;;;;;;;22.79;27.22;97073.91;5072811;28;983;-80
2023/07/27 06:31:14;;;;;;;;;;;;;;;22.69;27.42;97065.91;5056757;28;898;-80
2023/07/27 06:33:39;;;;;;;;;;;;;;;22.75;27.52;97044.97;5072811;28;891;-79
2023/07/27 06:36:08;;;;;;;;;;;;;;;22.83;27.32;97063.19;5023439;28;1969;-80
2023/07/27 06:38:33;;;;;;;;;;;;;;;22.40;28.01;97077.75;5100901;28;986;-80
2023/07/27 06:40:59;;;;;;;;;;;;;;;22.61;27.37;97102.31;5075557;28;1479;-80
2023/07/27 06:43:24;;;;;;;;;;;;;;;22.53;27.67;97166.25;5057246;28;840;-80
2023/07/27 06:45:50;;;;;;;;;;;;;;;22.55;27.20;97180.75;5076969;28;1751;-80
2023/07/27 06:48:15;;;;;;;;;;;;;;;22.77;27.06;97112.53;5176695;22;3474;-83
2023/07/27 06:50:41;;;;;;;;;;;;;;;23.10;28.95;97053.06;5038095;28;1245;-83
2023/07/27 06:53:06;;;;;;;;;;;;;;;23.05;29.19;97045.22;5029586;28;1182;-82
2023/07/27 06:55:32;;;;;;;;;;;;;;;23.10;28.79;97038.88;5043870;28;1958;-83
2023/07/27 06:57:58;;;;;;;;;;;;;;;23.13;28.79;97049.28;4989685;28;1250;-83
2023/07/27 07:00:24;;;;;;;;;;;;;;;22.64;29.56;97058.84;5006631;28;905;-83
2023/07/27 07:02:49;;;;;;;;;;;;;;;23.09;28.60;97077.03;4990234;28;924;-83
2023/07/27 07:05:15;;;;;;;;;;;;;;;22.92;28.95;97070.16;5006632;28;723;-84
2023/07/27 07:07:40;;;;;;;;;;;;;;;22.87;28.87;97071.56;5007483;28;916;-83
2023/07/27 07:10:07;;;;;;;;;;;;;;;22.59;29.59;97085.00;4989856;28;1354;-84
2023/07/27 07:12:32;;;;;;;;;;;;;;;22.92;29.17;97130.50;5007713;28;903;-83
2023/07/27 07:14:58;;;;;;;;;;;;;;;22.58;29.50;97123.09;5023000;28;1285;-84
2023/07/27 07:17:23;;;;;;;;;;;;;;;22.82;29.22;97081.50;4974565;28;1992;-84
2023/07/27 07:19:49;;;;;;;;;;;;;;;22.94;29.02;97047.78;4989250;28;1065;-83
2023/07/27 07:22:14;;;;;;;;;;;;;;;22.51;29.68;97066.72;5006394;28;1174;-83
2023/07/27 07:24:40;;;;;;;;;;;;;;;22.90;29.10;97064.16;5005246;28;1130;-83
2023/07/27 07:27:05;;;;;;;;;;;;;;;22.56;29.59;97024.34;4990061;28;752;-83
2023/07/27 07:29:31;;;;;;;;;;;;;;;22.90;29.32;97019.59;5031802;28;766;-83
2023/07/27 07:31:56;;;;;;;;;;;;;;;22.74;29.53;97056.75;5062486;28;1067;-83
2023/07/27 07:34:22;;;;;;;;;;;;;;;22.78;29.52;97097.09;5044464;28;977;-83
2023/07/27 07:36:47;;;;;;;;;;;;;;;22.79;29.58;97116.47;5029624;28;1989;-83
2023/07/27 07:39:13;;;;;;;;;;;;;;;22.95;29.17;97148.63;5028055;28;881;-83
2023/07/27 07:41:38;;;;;;;;;;;;;;;22.89;28.97;97168.34;5045823;28;1599;-83
2023/07/27 07:44:04;;;;;;;;;;;;;;;22.65;29.46;97127.69;5045448;28;860;-83
2023/07/27 07:46:29;;;;;;;;;;;;;;;22.67;29.25;97086.25;5063111;28;957;-83
2023/07/27 07:48:57;;;;;;;;;;;;;;;22.80;28.70;97069.84;5061133;28;1320;-84
2023/07/27 07:51:22;;;;;;;;;;;;;;;22.43;29.45;97082.47;5029638;28;1409;-83
2023/07/27 07:53:47;;;;;;;;;;;;;;;22.49;29.35;97080.59;5020642;28;1331;-83
2023/07/27 07:56:14;;;;;;;;;;;;;;;23.00;28.56;97088.41;5007345;28;1976;-83
2023/07/27 07:58:39;;;;;;;;;;;;;;;22.74;29.05;97074.59;5007639;28;1281;-83
2023/07/27 08:01:04;;;;;;;;;;;;;;;22.90;28.86;97076.31;5003887;28;881;-83
2023/07/27 08:03:30;;;;;;;;;;;;;;;22.82;28.95;97063.69;5001446;28;892;-83
2023/07/27 08:05:55;;;;;;;;;;;;;;;22.66;29.50;97056.31;5003297;28;849;-83
2023/07/27 08:08:21;;;;;;;;;;;;;;;22.66;29.50;97059.16;5002078;28;1305;-83
2023/07/27 08:10:47;;;;;;;;;;;;;;;22.66;29.20;97072.53;5003426;28;846;-83
2023/07/27 08:13:12;;;;;;;;;;;;;;;22.80;28.97;97094.59;5002033;28;806;-83
2023/07/27 08:15:38;;;;;;;;;;;;;;;22.64;29.47;97087.22;5002631;28;1978;-83
2023/07/27 08:18:05;;;;;;;;;;;;;;;22.77;29.34;97084.97;5021946;28;995;-83
2023/07/27 08:20:30;;;;;;;;;;;;;;;22.92;28.96;97085.13;5022741;28;817;-84
2023/07/27 08:22:56;;;;;;;;;;;;;;;22.92;28.90;97096.47;5022364;28;1609;-83
2023/07/27 08:25:21;;;;;;;;;;;;;;;22.90;28.86;97109.53;5025424;28;872;-83
2023/07/27 08:27:47;;;;;;;;;;;;;;;22.80;28.81;97122.94;5042516;28;1126;-83
2023/07/27 08:30:13;;;;;;;;;;;;;;;22.91;28.86;97122.50;5025751;28;1047;-83
2023/07/27 08:32:40;;;;;;;;;;;;;;;22.97;28.76;97093.00;5003600;28;954;-84
2023/07/27 08:35:06;;;;;;;;;;;;;;;22.43;29.33;97071.13;5002160;28;857;-83
2023/07/27 08:37:31;;;;;;;;;;;;;;;22.75;28.96;97109.41;5001368;28;1995;-83
2023/07/27 08:39:58;;;;;;;;;;;;;;;22.68;28.97;97167.22;5022037;28;723;-84
2023/07/27 08:42:23;;;;;;;;;;;;;;;22.64;29.05;97118.41;4991054;28;1118;-83
2023/07/27 08:44:49;;;;;;;;;;;;;;;22.78;28.64;97057.38;5022168;28;931;-83
2023/07/27 08:47:14;;;;;;;;;;;;;;;22.67;28.75;97052.22;5023176;28;1266;-83
2023/07/27 08:49:40;;;;;;;;;;;;;;;22.40;29.45;97038.09;5022072;28;1556;-83
2023/07/27 08:52:06;;;;;;;;;;;;;;;22.47;29.50;97037.75;5022996;28;1292;-83
2023/07/27 08:54:31;;;;;;;;;;;;;;;22.85;28.93;97037.22;5004940;28;1368;-83
2023/07/27 08:56:57;;;;;;;;;;;;;;;22.77;29.14;97053.00;5006151;28;1910;-83
2023/07/27 08:59:25;;;;;;;;;;;;;;;22.59;29.55;97068.78;4984682;28;1269;-84
2023/07/27 09:01:51;;;;;;;;;;;;;;;22.60;29.60;97076.00;4986341;28;1171;-83
2023/07/27 09:04:16;;;;;;;;;;;;;;;22.72;29.05;97042.28;5001370;28;957;-83
2023/07/27 09:06:45;;;;;;;;;;;;;;;22.82;29.13;97021.16;5002714;28;1296;-84
2023/07/27 09:09:22;;;;;;;;;;;;;;;22.87;29.00;97009.94;4989825;28;1380;-83
2023/07/27 09:11:48;;;;;;;;;;;;;;;22.85;29.00;97009.66;5040113;28;1292;-83
2023/07/27 09:14:14;;;;;;;;;;;;;;;22.61;29.44;97037.09;5020079;28;1182;-83
2023/07/27 09:16:39;;;;;;;;;;;;;;;22.64;29.59;97041.84;5038329;28;1887;-84
2023/07/27 09:19:05;;;;;;;;;;;;;;;22.63;29.20;97057.25;5027339;28;1414;-81
2023/07/27 09:21:38;;;;;;;;;;;;;;;22.66;28.92;97107.34;5044790;28;711;-81
2023/07/27 09:24:03;;;;;;;;;;;;;;;22.70;28.92;97166.75;5043420;28;822;-80
2023/07/27 09:26:29;;;;;;;;;;;;;;;22.72;28.86;97189.75;5034642;28;1348;-81
2023/07/27 09:28:54;;;;;;;;;;;;;;;22.41;28.94;97206.88;5023530;28;1143;-81
2023/07/27 09:31:20;;;;;;;;;;;;;;;22.79;28.44;97184.53;5026248;28;940;-82
2023/07/27 09:33:45;;;;;;;;;;;;;;;22.76;28.05;97182.66;5043936;28;1346;-82
2023/07/27 09:36:11;;;;;;;;;;;;;;;22.77;27.70;97204.09;5046034;28;1910;-82
2023/07/27 09:38:36;;;;;;;;;;;;;;;22.60;28.10;97234.78;5044075;28;761;-82
2023/07/27 09:41:06;;;;;;;;;;;;;;;22.72;27.92;97269.94;5045824;28;766;-82
2023/07/27 09:43:31;;;;;;;;;;;;;;;22.75;27.71;97256.88;5045278;28;822;-82
2023/07/27 09:45:58;;;;;;;;;;;;;;;22.66;27.68;97225.66;5046003;28;1351;-82
2023/07/27 09:48:23;;;;;;;;;;;;;;;22.71;27.66;97205.97;5027738;28;1188;-81
2023/07/27 09:50:49;;;;;;;;;;;;;;;22.56;27.70;97205.03;5045357;28;703;-82
2023/07/27 09:53:14;;;;;;;;;;;;;;;22.50;27.86;97179.34;5043788;28;879;-82
2023/07/27 09:55:40;;;;;;;;;;;;;;;22.77;27.58;97175.72;5029385;28;1902;-82
2023/07/27 09:58:05;;;;;;;;;;;;;;;22.21;28.76;97196.75;5027081;28;1253;-82
2023/07/27 10:00:31;;;;;;;;;;;;;;;22.60;27.90;97206.44;5025749;28;1222;-82
2023/07/27 10:02:57;;;;;;;;;;;;;;;22.71;28.01;97223.00;5026436;28;1246;-82
2023/07/27 10:05:22;;;;;;;;;;;;;;;22.43;28.46;97230.66;5028430;28;844;-81
2023/07/27 10:07:48;;;;;;;;;;;;;;;22.56;28.11;97222.81;5045115;28;1320;-82
2023/07/27 10:10:23;;;;;;;;;;;;;;;22.79;27.48;97207.22;5044973;28;1289;-82
2023/07/27 10:12:49;;;;;;;;;;;;;;;22.53;27.96;97171.94;5043672;28;1375;-82
2023/07/27 10:15:18;;;;;;;;;;;;;;;22.35;28.46;97186.88;5025434;28;1931;-83
2023/07/27 10:17:50;;;;;;;;;;;;;;;22.38;28.31;97193.63;5026056;28;1059;-83
2023/07/27 10:20:19;;;;;;;;;;;;;;;22.66;28.08;97180.28;5023737;28;852;-82
2023/07/27 10:22:49;;;;;;;;;;;;;;;22.51;27.90;97163.13;4965912;29;848;-83
2023/07/27 10:25:14;;;;;;;;;;;;;;;22.47;28.00;97145.47;4982531;28;872;-83
2023/07/27 10:28:00;;;;;;;;;;;;;;;22.55;27.88;97112.72;4966404;29;920;-83
2023/07/27 10:30:26;;;;;;;;;;;;;;;22.64;27.67;97092.88;4965082;28;1112;-83
2023/07/27 10:33:19;;;;;;;;;;;;;;;22.57;28.06;97076.16;4965544;29;1393;-83
2023/07/27 10:36:01;;;;;;;;;;;;;;;22.70;27.52;97062.63;4930364;29;1969;-82
2023/07/27 10:38:27;;;;;;;;;;;;;;;22.50;28.19;97051.00;4944157;29;1485;-83
2023/07/27 10:40:53;;;;;;;;;;;;;;;22.60;28.20;97081.69;4947687;29;902;-83
2023/07/27 10:43:18;;;;;;;;;;;;;;;22.42;28.30;97097.91;4929956;29;1536;-83
2023/07/27 10:45:51;;;;;;;;;;;;;;;22.65;28.00;97094.44;4932259;29;1220;-83
2023/07/27 10:48:17;;;;;;;;;;;;;;;22.66;28.19;97084.66;4944467;29;1493;-83
2023/07/27 10:50:42;;;;;;;;;;;;;;;22.75;27.86;97058.34;4942893;28;900;-83
2023/07/27 10:53:08;;;;;;;;;;;;;;;22.70;28.05;97076.00;4984405;28;1307;-83
2023/07/27 10:55:36;;;;;;;;;;;;;;;22.90;27.74;97092.53;4985517;28;1952;-83
2023/07/27 10:58:02;;;;;;;;;;;;;;;22.56;28.25;97100.13;4985278;28;866;-84
2023/07/27 11:00:34;;;;;;;;;;;;;;;22.68;28.26;97098.38;4985005;28;1117;-83
2023/07/27 11:02:59;;;;;;;;;;;;;;;22.41;28.59;97107.69;4984799;28;925;-83
2023/07/27 11:05:25;;;;;;;;;;;;;;;22.71;28.24;97126.56;4985251;28;982;-83
2023/07/27 11:07:51;;;;;;;;;;;;;;;22.59;28.23;97164.41;4985507;28;810;-84
2023/07/27 11:10:25;;;;;;;;;;;;;;;22.44;28.55;97192.56;4972292;28;968;-84
2023/07/27 11:12:51;;;;;;;;;;;;;;;22.86;27.93;97206.94;5024324;28;888;-83
2023/07/27 11:15:21;;;;;;;;;;;;;;;22.54;28.05;97227.41;5044651;28;1947;-83
2023/07/27 11:17:50;;;;;;;;;;;;;;;22.75;27.79;97245.53;5027918;28;1311;-83
2023/07/27 11:20:16;;;;;;;;;;;;;;;22.70;27.83;97266.78;5011000;28;1222;-83
2023/07/27 11:22:42;;;;;;;;;;;;;;;22.80;27.50;97274.06;5044656;28;763;-84
2023/07/27 11:25:09;;;;;;;;;;;;;;;22.70;27.19;97263.97;5027280;28;1752;-84
2023/07/27 11:27:36;;;;;;;;;;;;;;;22.68;27.44;97243.78;5015842;28;1267;-84
2023/07/27 11:30:04;;;;;;;;;;;;;;;22.71;27.24;97205.97;5033175;28;1476;-83
2023/07/27 11:32:29;;;;;;;;;;;;;;;22.63;27.33;97153.66;5043243;28;1258;-83
2023/07/27 11:34:55;;;;;;;;;;;;;;;22.62;27.80;97118.84;5043079;28;1562;-83
2023/07/27 11:37:23;;;;;;;;;;;;;;;22.77;27.50;97087.81;5045017;28;1914;-83
2023/07/27 11:39:48;;;;;;;;;;;;;;;22.75;27.72;97047.81;5026553;28;1192;-83
2023/07/27 11:42:14;;;;;;;;;;;;;;;22.55;28.17;96970.97;5044264;28;841;-83
2023/07/27 11:44:39;;;;;;;;;;;;;;;22.73;28.24;96953.88;5043269;28;933;-83
2023/07/27 11:47:05;;;;;;;;;;;;;;;22.74;28.60;97057.56;5060390;28;1289;-82
2023/07/27 11:49:30;;;;;;;;;;;;;;;22.48;29.04;97153.50;5026371;28;1228;-83
2023/07/27 11:51:56;;;;;;;;;;;;;;;22.58;28.65;97191.94;5048292;28;1080;-83
2023/07/27 11:54:25;;;;;;;;;;;;;;;22.56;28.95;97197.28;5043181;28;810;-83
2023/07/27 11:56:51;;;;;;;;;;;;;;;22.77;28.54;97191.94;5044510;28;1973;-83
2023/07/27 11:59:17;;;;;;;;;;;;;;;22.66;28.78;97215.09;5043472;28;917;-83
2023/07/27 12:01:42;;;;;;;;;;;;;;;22.71;28.43;97231.50;4989538;28;1538;-83
2023/07/27 12:04:08;;;;;;;;;;;;;;;22.57;28.62;97240.59;4988918;28;1080;-83
2023/07/27 12:06:34;;;;;;;;;;;;;;;22.60;28.10;97243.31;4990587;28;1364;-83
2023/07/27 12:09:00;;;;;;;;;;;;;;;22.52;28.16;97239.19;4989567;28;847;-83
2023/07/27 12:11:26;;;;;;;;;;;;;;;22.59;28.09;97243.78;4987351;28;1100;-83
2023/07/27 12:13:51;;;;;;;;;;;;;;;22.42;28.37;97229.09;4985504;28;831;-83
2023/07/27 12:16:17;;;;;;;;;;;;;;;22.81;27.53;97221.75;4987234;28;1979;-83
2023/07/27 12:18:43;;;;;;;;;;;;;;;22.65;27.83;97207.88;5001373;28;723;-83
2023/07/27 12:21:08;;;;;;;;;;;;;;;22.32;27.94;97205.59;4987669;28;1061;-83
2023/07/27 12:23:34;;;;;;;;;;;;;;;22.51;28.25;97191.47;5001619;28;913;-83
2023/07/27 12:26:00;;;;;;;;;;;;;;;22.68;27.85;97189.09;5004320;28;794;-82
2023/07/27 12:28:26;;;;;;;;;;;;;;;22.83;27.53;97176.66;4985553;28;917;-83
2023/07/27 12:30:51;;;;;;;;;;;;;;;22.56;27.96;97179.50;5003910;28;976;-83
2023/07/27 12:33:17;;;;;;;;;;;;;;;22.63;28.02;97176.34;5031319;28;922;-83
2023/07/27 12:35:42;;;;;;;;;;;;;;;22.60;28.11;97165.97;5026217;28;1961;-83
2023/07/27 12:38:08;;;;;;;;;;;;;;;22.60;28.21;97160.28;5024810;28;1261;-83
2023/07/27 12:40:33;;;;;;;;;;;;;;;22.82;28.20;97160.91;5025077;28;802;-83
2023/07/27 12:42:59;;;;;;;;;;;;;;;22.64;28.36;97143.91;5020797;28;1161;-83
2023/07/27 12:45:26;;;;;;;;;;;;;;;22.64;28.47;97143.91;5047615;28;733;-83
2023/07/27 12:47:51;;;;;;;;;;;;;;;22.57;28.45;97145.00;5030199;28;1173;-83
2023/07/27 12:50:17;;;;;;;;;;;;;;;22.69;28.77;97134.78;5067840;28;809;-83
2023/07/27 12:52:43;;;;;;;;;;;;;;;22.75;28.78;97115.06;5050210;28;829;-83
2023/07/27 12:55:09;;;;;;;;;;;;;;;22.61;29.04;97127.84;5048697;28;1262;-83